« Back
NWS Peachtree City, Ga » Text Product » ATL Terminal Aerodrome Forecast


Printer-friendly Version
Current Version              Previous Versions:   1  2  3  4  5  6  7  8  9  

Terminal Aerodrome Forecast

932
FTUS42 KFFC 271127
TAFATL
TAF
KATL 271127Z 2712/2818 28010G19KT P6SM BKN035
     FM271800 31015G25KT P6SM SCT040
     FM280000 32008KT P6SM FEW050
     FM281200 33005KT P6SM SKC=



USA.gov is the U.S. government's official web portal to all federal, state and local government web resources and services.